sensor_id;sensor_type;location;lat;lon;timestamp;pressure;altitude;pressure_sealevel;temperature;humidity
6532;BME280;3299;42.004;24.868;2022-07-29T00:00:59;98344.28;;;22.91;79.59
6532;BME280;3299;42.004;24.868;2022-07-29T00:03:25;98348.19;;;22.95;78.77
6532;BME280;3299;42.004;24.868;2022-07-29T00:05:50;98350.84;;;22.95;78.16
6532;BME280;3299;42.004;24.868;2022-07-29T00:08:18;98349.28;;;22.86;78.41
6532;BME280;3299;42.004;24.868;2022-07-29T00:10:44;98336.38;;;22.76;78.97
6532;BME280;3299;42.004;24.868;2022-07-29T00:13:09;98336.56;;;22.60;79.44
6532;BME280;3299;42.004;24.868;2022-07-29T00:15:35;98329.34;;;22.40;80.34
6532;BME280;3299;42.004;24.868;2022-07-29T00:18:00;98318.50;;;22.20;81.45
6532;BME280;3299;42.004;24.868;2022-07-29T00:20:26;98317.56;;;22.13;82.17
6532;BME280;3299;42.004;24.868;2022-07-29T00:22:51;98315.31;;;22.10;83.19
6532;BME280;3299;42.004;24.868;2022-07-29T00:25:17;98318.94;;;22.24;82.69
6532;BME280;3299;42.004;24.868;2022-07-29T00:27:42;98315.97;;;22.27;82.40
6532;BME280;3299;42.004;24.868;2022-07-29T00:30:08;98305.44;;;22.41;81.63
6532;BME280;3299;42.004;24.868;2022-07-29T00:32:34;98309.16;;;22.47;81.55
6532;BME280;3299;42.004;24.868;2022-07-29T00:34:59;98310.34;;;22.59;81.07
6532;BME280;3299;42.004;24.868;2022-07-29T00:37:43;98305.72;;;22.61;80.95
6532;BME280;3299;42.004;24.868;2022-07-29T00:40:09;98303.25;;;22.74;80.38
6532;BME280;3299;42.004;24.868;2022-07-29T00:45:11;98311.78;;;22.90;76.43
6532;BME280;3299;42.004;24.868;2022-07-29T00:47:37;98317.28;;;22.89;76.60
6532;BME280;3299;42.004;24.868;2022-07-29T00:50:04;98310.88;;;22.83;75.50
6532;BME280;3299;42.004;24.868;2022-07-29T00:52:29;98307.16;;;22.92;73.84
6532;BME280;3299;42.004;24.868;2022-07-29T00:54:55;98309.72;;;22.86;72.65
6532;BME280;3299;42.004;24.868;2022-07-29T00:57:21;98309.97;;;22.91;70.94
6532;BME280;3299;42.004;24.868;2022-07-29T00:59:47;98303.16;;;22.82;71.34
6532;BME280;3299;42.004;24.868;2022-07-29T01:02:12;98311.06;;;22.82;69.31
6532;BME280;3299;42.004;24.868;2022-07-29T01:04:38;98313.63;;;22.75;68.02
6532;BME280;3299;42.004;24.868;2022-07-29T01:07:04;98302.63;;;22.72;67.84
6532;BME280;3299;42.004;24.868;2022-07-29T01:09:32;98319.44;;;22.85;65.87
6532;BME280;3299;42.004;24.868;2022-07-29T01:11:58;98308.16;;;22.77;70.35
6532;BME280;3299;42.004;24.868;2022-07-29T01:14:25;98320.16;;;22.94;73.54
6532;BME280;3299;42.004;24.868;2022-07-29T01:16:59;98313.59;;;23.04;75.15
6532;BME280;3299;42.004;24.868;2022-07-29T01:19:33;98320.31;;;23.07;75.95
6532;BME280;3299;42.004;24.868;2022-07-29T01:25:12;98318.88;;;23.04;75.78
6532;BME280;3299;42.004;24.868;2022-07-29T01:28:08;98302.22;;;23.04;75.06
6532;BME280;3299;42.004;24.868;2022-07-29T01:30:44;98307.13;;;23.07;74.14
6532;BME280;3299;42.004;24.868;2022-07-29T01:33:14;98303.22;;;23.03;74.26
6532;BME280;3299;42.004;24.868;2022-07-29T01:36:07;98303.03;;;23.04;72.66
6532;BME280;3299;42.004;24.868;2022-07-29T01:38:35;98303.34;;;22.95;71.34
6532;BME280;3299;42.004;24.868;2022-07-29T01:41:08;98302.31;;;22.96;70.07
6532;BME280;3299;42.004;24.868;2022-07-29T01:44:10;98303.97;;;22.97;71.70
6532;BME280;3299;42.004;24.868;2022-07-29T01:46:40;98296.84;;;22.97;73.18
6532;BME280;3299;42.004;24.868;2022-07-29T01:49:10;98297.75;;;23.04;73.21
6532;BME280;3299;42.004;24.868;2022-07-29T01:51:50;98298.84;;;22.95;73.44
6532;BME280;3299;42.004;24.868;2022-07-29T01:54:26;98294.63;;;22.80;71.45
6532;BME280;3299;42.004;24.868;2022-07-29T01:56:56;98300.78;;;22.87;72.63
6532;BME280;3299;42.004;24.868;2022-07-29T01:59:23;98308.25;;;22.83;73.61
6532;BME280;3299;42.004;24.868;2022-07-29T02:01:50;98304.16;;;22.66;74.77
6532;BME280;3299;42.004;24.868;2022-07-29T02:04:19;98311.00;;;22.61;75.08
6532;BME280;3299;42.004;24.868;2022-07-29T02:06:47;98300.53;;;22.53;74.07
6532;BME280;3299;42.004;24.868;2022-07-29T02:09:15;98305.25;;;22.43;73.11
6532;BME280;3299;42.004;24.868;2022-07-29T02:11:48;98303.97;;;22.39;71.90
6532;BME280;3299;42.004;24.868;2022-07-29T02:14:17;98300.72;;;22.37;71.07
6532;BME280;3299;42.004;24.868;2022-07-29T02:16:43;98298.41;;;22.34;70.85
6532;BME280;3299;42.004;24.868;2022-07-29T02:19:09;98299.59;;;22.31;72.30
6532;BME280;3299;42.004;24.868;2022-07-29T02:21:36;98294.94;;;22.33;72.93
6532;BME280;3299;42.004;24.868;2022-07-29T02:24:02;98298.13;;;22.29;73.96
6532;BME280;3299;42.004;24.868;2022-07-29T02:26:30;98296.41;;;22.36;75.07
6532;BME280;3299;42.004;24.868;2022-07-29T02:28:58;98296.88;;;22.25;75.66
6532;BME280;3299;42.004;24.868;2022-07-29T02:31:30;98296.88;;;22.25;74.97
6532;BME280;3299;42.004;24.868;2022-07-29T02:33:58;98286.22;;;22.18;72.10
6532;BME280;3299;42.004;24.868;2022-07-29T02:36:24;98289.94;;;22.24;72.96
6532;BME280;3299;42.004;24.868;2022-07-29T02:38:51;98290.69;;;22.32;73.75
6532;BME280;3299;42.004;24.868;2022-07-29T02:43:56;98291.78;;;22.38;73.73
6532;BME280;3299;42.004;24.868;2022-07-29T02:46:33;98291.13;;;22.36;73.68
6532;BME280;3299;42.004;24.868;2022-07-29T02:49:25;98287.88;;;22.34;72.49
6532;BME280;3299;42.004;24.868;2022-07-29T02:51:58;98292.72;;;22.45;70.98
6532;BME280;3299;42.004;24.868;2022-07-29T02:57:22;98288.34;;;22.52;71.18
6532;BME280;3299;42.004;24.868;2022-07-29T02:59:53;98296.53;;;22.57;71.81
6532;BME280;3299;42.004;24.868;2022-07-29T03:02:21;98288.53;;;22.50;71.29
6532;BME280;3299;42.004;24.868;2022-07-29T03:04:47;98296.06;;;22.39;72.94
6532;BME280;3299;42.004;24.868;2022-07-29T03:07:15;98301.78;;;22.42;72.43
6532;BME280;3299;42.004;24.868;2022-07-29T03:09:44;98288.31;;;22.37;70.88
6532;BME280;3299;42.004;24.868;2022-07-29T03:12:10;98307.53;;;22.46;69.97
6532;BME280;3299;42.004;24.868;2022-07-29T03:14:37;98296.06;;;22.39;68.28
6532;BME280;3299;42.004;24.868;2022-07-29T03:17:03;98297.06;;;22.23;69.64
6532;BME280;3299;42.004;24.868;2022-07-29T03:19:29;98300.50;;;22.38;68.33
6532;BME280;3299;42.004;24.868;2022-07-29T03:21:58;98306.78;;;22.37;69.37
6532;BME280;3299;42.004;24.868;2022-07-29T03:24:28;98303.69;;;22.34;68.39
6532;BME280;3299;42.004;24.868;2022-07-29T03:26:55;98301.94;;;22.26;68.23
6532;BME280;3299;42.004;24.868;2022-07-29T03:29:20;98322.06;;;22.42;67.42
6532;BME280;3299;42.004;24.868;2022-07-29T03:31:45;98310.25;;;22.38;68.11
6532;BME280;3299;42.004;24.868;2022-07-29T03:34:11;98314.91;;;22.50;68.59
6532;BME280;3299;42.004;24.868;2022-07-29T03:36:36;98318.44;;;22.43;70.70
6532;BME280;3299;42.004;24.868;2022-07-29T03:39:03;98316.16;;;22.40;70.34
6532;BME280;3299;42.004;24.868;2022-07-29T03:41:30;98316.47;;;22.45;70.01
6532;BME280;3299;42.004;24.868;2022-07-29T03:43:58;98310.53;;;22.43;70.42
6532;BME280;3299;42.004;24.868;2022-07-29T03:46:26;98310.19;;;22.46;71.13
6532;BME280;3299;42.004;24.868;2022-07-29T03:48:56;98316.31;;;22.38;71.66
6532;BME280;3299;42.004;24.868;2022-07-29T03:51:23;98310.25;;;22.38;73.12
6532;BME280;3299;42.004;24.868;2022-07-29T03:53:50;98322.75;;;22.44;71.79
6532;BME280;3299;42.004;24.868;2022-07-29T03:56:16;98334.09;;;22.59;70.49
6532;BME280;3299;42.004;24.868;2022-07-29T03:58:43;98338.63;;;22.65;70.34
6532;BME280;3299;42.004;24.868;2022-07-29T04:01:09;98315.63;;;22.59;69.35
6532;BME280;3299;42.004;24.868;2022-07-29T04:03:35;98341.28;;;22.65;70.29
6532;BME280;3299;42.004;24.868;2022-07-29T04:06:05;98337.47;;;22.53;69.37
6532;BME280;3299;42.004;24.868;2022-07-29T04:08:32;98346.38;;;22.66;68.74
6532;BME280;3299;42.004;24.868;2022-07-29T04:10:58;98340.19;;;22.74;69.12
6532;BME280;3299;42.004;24.868;2022-07-29T04:13:23;98348.13;;;22.74;69.83
6532;BME280;3299;42.004;24.868;2022-07-29T04:15:49;98340.03;;;22.75;70.10
6532;BME280;3299;42.004;24.868;2022-07-29T04:18:14;98350.19;;;22.78;70.54
6532;BME280;3299;42.004;24.868;2022-07-29T04:20:40;98349.75;;;22.75;71.05
6532;BME280;3299;42.004;24.868;2022-07-29T04:23:05;98341.47;;;22.78;70.61
6532;BME280;3299;42.004;24.868;2022-07-29T04:25:30;98343.38;;;22.84;70.26
6532;BME280;3299;42.004;24.868;2022-07-29T04:27:56;98343.09;;;22.93;70.61
6532;BME280;3299;42.004;24.868;2022-07-29T04:30:28;98345.00;;;22.99;70.51
6532;BME280;3299;42.004;24.868;2022-07-29T04:32:54;98338.00;;;22.92;70.47
6532;BME280;3299;42.004;24.868;2022-07-29T04:35:20;98338.25;;;22.97;69.63
6532;BME280;3299;42.004;24.868;2022-07-29T04:37:46;98349.53;;;23.05;69.59
6532;BME280;3299;42.004;24.868;2022-07-29T04:40:12;98348.63;;;23.13;69.41
6532;BME280;3299;42.004;24.868;2022-07-29T04:42:38;98340.00;;;23.19;68.80
6532;BME280;3299;42.004;24.868;2022-07-29T04:45:04;98342.25;;;23.22;69.03
6532;BME280;3299;42.004;24.868;2022-07-29T04:47:29;98346.34;;;23.24;68.80
6532;BME280;3299;42.004;24.868;2022-07-29T04:49:55;98341.88;;;23.25;69.40
6532;BME280;3299;42.004;24.868;2022-07-29T04:52:21;98356.09;;;23.24;69.58
6532;BME280;3299;42.004;24.868;2022-07-29T04:54:47;98355.34;;;23.30;69.16
6532;BME280;3299;42.004;24.868;2022-07-29T04:57:14;98349.59;;;23.26;69.23
6532;BME280;3299;42.004;24.868;2022-07-29T04:59:40;98358.22;;;23.35;69.16
6532;BME280;3299;42.004;24.868;2022-07-29T05:02:05;98355.44;;;23.22;70.43
6532;BME280;3299;42.004;24.868;2022-07-29T05:04:30;98369.44;;;23.37;68.59
6532;BME280;3299;42.004;24.868;2022-07-29T05:06:56;98363.47;;;23.49;68.18
6532;BME280;3299;42.004;24.868;2022-07-29T05:09:21;98352.47;;;23.46;67.72
6532;BME280;3299;42.004;24.868;2022-07-29T05:11:47;98361.16;;;23.61;67.84
6532;BME280;3299;42.004;24.868;2022-07-29T05:14:12;98366.13;;;23.70;67.72
6532;BME280;3299;42.004;24.868;2022-07-29T05:16:38;98363.06;;;23.67;66.41
6532;BME280;3299;42.004;24.868;2022-07-29T05:19:05;98375.59;;;23.79;66.09
6532;BME280;3299;42.004;24.868;2022-07-29T05:21:30;98369.47;;;23.78;66.79
6532;BME280;3299;42.004;24.868;2022-07-29T05:23:56;98361.72;;;23.77;66.46
6532;BME280;3299;42.004;24.868;2022-07-29T05:26:21;98370.53;;;23.84;66.59
6532;BME280;3299;42.004;24.868;2022-07-29T05:28:47;98371.38;;;23.84;66.41
6532;BME280;3299;42.004;24.868;2022-07-29T05:31:12;98371.16;;;24.01;65.42
6532;BME280;3299;42.004;24.868;2022-07-29T05:33:40;98366.66;;;24.01;65.35
6532;BME280;3299;42.004;24.868;2022-07-29T05:36:06;98367.16;;;24.11;65.07
6532;BME280;3299;42.004;24.868;2022-07-29T05:38:33;98371.53;;;24.25;64.28
6532;BME280;3299;42.004;24.868;2022-07-29T05:40:59;98374.63;;;24.28;64.38
6532;BME280;3299;42.004;24.868;2022-07-29T05:43:26;98371.78;;;24.30;64.17
6532;BME280;3299;42.004;24.868;2022-07-29T05:45:51;98376.97;;;24.44;63.45
6532;BME280;3299;42.004;24.868;2022-07-29T05:48:17;98381.75;;;24.55;63.47
6532;BME280;3299;42.004;24.868;2022-07-29T05:50:42;98354.25;;;24.50;62.99
6532;BME280;3299;42.004;24.868;2022-07-29T05:53:08;98379.25;;;24.75;62.16
6532;BME280;3299;42.004;24.868;2022-07-29T05:55:33;98386.47;;;24.87;62.48
6532;BME280;3299;42.004;24.868;2022-07-29T05:57:59;98391.28;;;24.77;62.61
6532;BME280;3299;42.004;24.868;2022-07-29T06:00:24;98385.41;;;24.82;62.57
6532;BME280;3299;42.004;24.868;2022-07-29T06:02:50;98391.78;;;24.94;62.02
6532;BME280;3299;42.004;24.868;2022-07-29T06:05:15;98384.09;;;25.05;60.69
6532;BME280;3299;42.004;24.868;2022-07-29T06:07:41;98400.66;;;25.14;60.63
6532;BME280;3299;42.004;24.868;2022-07-29T06:10:06;98395.25;;;25.28;59.96
6532;BME280;3299;42.004;24.868;2022-07-29T06:12:32;98395.28;;;25.41;59.88
6532;BME280;3299;42.004;24.868;2022-07-29T06:14:57;98399.78;;;25.47;59.88
6532;BME280;3299;42.004;24.868;2022-07-29T06:17:23;98397.59;;;25.64;59.65
6532;BME280;3299;42.004;24.868;2022-07-29T06:19:48;98392.94;;;25.72;59.19
6532;BME280;3299;42.004;24.868;2022-07-29T06:22:17;98395.19;;;25.75;58.37
6532;BME280;3299;42.004;24.868;2022-07-29T06:24:42;98396.44;;;25.79;58.39
6532;BME280;3299;42.004;24.868;2022-07-29T06:27:10;98389.75;;;25.90;58.54
6532;BME280;3299;42.004;24.868;2022-07-29T06:29:35;98397.09;;;26.01;57.98
6532;BME280;3299;42.004;24.868;2022-07-29T06:32:01;98392.00;;;26.12;58.21
6532;BME280;3299;42.004;24.868;2022-07-29T06:34:27;98388.53;;;26.25;57.83
6532;BME280;3299;42.004;24.868;2022-07-29T06:36:53;98394.03;;;26.36;57.29
6532;BME280;3299;42.004;24.868;2022-07-29T06:39:18;98391.41;;;26.49;57.23
6532;BME280;3299;42.004;24.868;2022-07-29T06:41:47;98389.94;;;26.53;56.25
6532;BME280;3299;42.004;24.868;2022-07-29T06:44:14;98401.00;;;26.63;55.71
6532;BME280;3299;42.004;24.868;2022-07-29T06:46:39;98389.75;;;26.74;55.79
6532;BME280;3299;42.004;24.868;2022-07-29T06:49:04;98395.63;;;26.89;55.25
6532;BME280;3299;42.004;24.868;2022-07-29T06:51:30;98393.78;;;26.96;55.56
6532;BME280;3299;42.004;24.868;2022-07-29T06:53:56;98395.56;;;27.09;55.37
6532;BME280;3299;42.004;24.868;2022-07-29T06:56:22;98391.91;;;27.16;54.46
6532;BME280;3299;42.004;24.868;2022-07-29T06:58:48;98379.00;;;27.20;53.97
6532;BME280;3299;42.004;24.868;2022-07-29T07:01:13;98388.72;;;27.39;53.77
6532;BME280;3299;42.004;24.868;2022-07-29T07:03:38;98374.19;;;27.48;53.57
6532;BME280;3299;42.004;24.868;2022-07-29T07:06:04;98390.81;;;27.37;52.13
6532;BME280;3299;42.004;24.868;2022-07-29T07:08:30;98382.63;;;27.38;51.69
6532;BME280;3299;42.004;24.868;2022-07-29T07:10:55;98389.09;;;27.55;51.56
6532;BME280;3299;42.004;24.868;2022-07-29T07:13:22;98378.25;;;27.57;52.26
6532;BME280;3299;42.004;24.868;2022-07-29T07:15:47;98387.75;;;27.71;52.16
6532;BME280;3299;42.004;24.868;2022-07-29T07:18:14;98389.13;;;27.86;51.54
6532;BME280;3299;42.004;24.868;2022-07-29T07:20:40;98391.88;;;28.04;51.20
6532;BME280;3299;42.004;24.868;2022-07-29T07:23:06;98395.72;;;28.08;50.05
6532;BME280;3299;42.004;24.868;2022-07-29T07:25:31;98390.38;;;28.15;49.82
6532;BME280;3299;42.004;24.868;2022-07-29T07:27:57;98385.81;;;28.22;50.95
6532;BME280;3299;42.004;24.868;2022-07-29T07:30:22;98387.47;;;28.16;50.37
6532;BME280;3299;42.004;24.868;2022-07-29T07:32:48;98391.84;;;28.35;50.77
6532;BME280;3299;42.004;24.868;2022-07-29T07:35:13;98392.63;;;28.42;49.80
6532;BME280;3299;42.004;24.868;2022-07-29T07:37:39;98390.13;;;28.47;49.64
6532;BME280;3299;42.004;24.868;2022-07-29T07:40:09;98390.94;;;28.48;49.23
6532;BME280;3299;42.004;24.868;2022-07-29T07:42:37;98398.56;;;28.62;48.44
6532;BME280;3299;42.004;24.868;2022-07-29T07:45:03;98378.16;;;28.56;48.68
6532;BME280;3299;42.004;24.868;2022-07-29T07:47:30;98388.28;;;28.66;47.65
6532;BME280;3299;42.004;24.868;2022-07-29T07:49:55;98380.09;;;28.67;47.41
6532;BME280;3299;42.004;24.868;2022-07-29T07:52:21;98382.03;;;28.78;47.30
6532;BME280;3299;42.004;24.868;2022-07-29T07:54:48;98378.03;;;28.87;46.48
6532;BME280;3299;42.004;24.868;2022-07-29T07:57:14;98381.84;;;28.98;46.39
6532;BME280;3299;42.004;24.868;2022-07-29T07:59:40;98376.00;;;29.07;45.81
6532;BME280;3299;42.004;24.868;2022-07-29T08:02:07;98376.88;;;29.19;45.60
6532;BME280;3299;42.004;24.868;2022-07-29T08:04:32;98373.47;;;29.30;44.64
6532;BME280;3299;42.004;24.868;2022-07-29T08:06:59;98377.31;;;29.34;43.75
6532;BME280;3299;42.004;24.868;2022-07-29T08:09:26;98382.19;;;29.37;41.58
6532;BME280;3299;42.004;24.868;2022-07-29T08:11:52;98385.41;;;29.28;41.14
6532;BME280;3299;42.004;24.868;2022-07-29T08:14:18;98385.31;;;29.16;40.99
6532;BME280;3299;42.004;24.868;2022-07-29T08:16:44;98390.38;;;29.06;41.18
6532;BME280;3299;42.004;24.868;2022-07-29T08:19:09;98382.47;;;28.93;41.95
6532;BME280;3299;42.004;24.868;2022-07-29T08:21:35;98373.31;;;28.89;42.43
6532;BME280;3299;42.004;24.868;2022-07-29T08:24:01;98378.78;;;28.94;41.63
6532;BME280;3299;42.004;24.868;2022-07-29T08:26:45;98376.59;;;29.09;42.95
6532;BME280;3299;42.004;24.868;2022-07-29T08:29:11;98381.31;;;29.25;41.65
6532;BME280;3299;42.004;24.868;2022-07-29T08:31:37;98378.47;;;29.38;39.24
6532;BME280;3299;42.004;24.868;2022-07-29T08:34:03;98384.94;;;29.49;40.33
6532;BME280;3299;42.004;24.868;2022-07-29T08:36:29;98393.00;;;29.60;39.71
6532;BME280;3299;42.004;24.868;2022-07-29T08:38:55;98382.75;;;29.57;39.73
6532;BME280;3299;42.004;24.868;2022-07-29T08:41:20;98385.22;;;29.59;36.46
6532;BME280;3299;42.004;24.868;2022-07-29T08:43:49;98384.78;;;29.62;37.16
6532;BME280;3299;42.004;24.868;2022-07-29T08:46:15;98379.53;;;29.55;36.74
6532;BME280;3299;42.004;24.868;2022-07-29T08:48:42;98378.75;;;29.66;37.88
6532;BME280;3299;42.004;24.868;2022-07-29T08:51:08;98375.31;;;29.77;36.52
6532;BME280;3299;42.004;24.868;2022-07-29T08:53:41;98371.88;;;29.88;36.97
6532;BME280;3299;42.004;24.868;2022-07-29T08:56:11;98370.47;;;29.97;36.93
6532;BME280;3299;42.004;24.868;2022-07-29T08:58:38;98364.53;;;30.13;35.84
6532;BME280;3299;42.004;24.868;2022-07-29T09:01:04;98361.75;;;30.20;36.29
6532;BME280;3299;42.004;24.868;2022-07-29T09:03:31;98349.81;;;30.22;36.76
6532;BME280;3299;42.004;24.868;2022-07-29T09:05:58;98360.25;;;30.35;34.97
6532;BME280;3299;42.004;24.868;2022-07-29T09:08:23;98351.88;;;30.43;35.18
6532;BME280;3299;42.004;24.868;2022-07-29T09:10:49;98362.69;;;30.48;34.95
6532;BME280;3299;42.004;24.868;2022-07-29T09:13:16;98354.09;;;30.58;35.07
6532;BME280;3299;42.004;24.868;2022-07-29T09:15:41;98350.75;;;30.62;34.86
6532;BME280;3299;42.004;24.868;2022-07-29T09:18:06;98344.81;;;30.60;34.44
6532;BME280;3299;42.004;24.868;2022-07-29T09:20:32;98351.44;;;30.46;34.85
6532;BME280;3299;42.004;24.868;2022-07-29T09:23:16;98347.47;;;30.37;34.73
6532;BME280;3299;42.004;24.868;2022-07-29T09:25:41;98348.88;;;30.40;35.11
6532;BME280;3299;42.004;24.868;2022-07-29T09:28:09;98349.91;;;30.50;34.98
6532;BME280;3299;42.004;24.868;2022-07-29T09:30:35;98345.41;;;30.62;34.76
6532;BME280;3299;42.004;24.868;2022-07-29T09:33:02;98348.19;;;30.67;32.41
6532;BME280;3299;42.004;24.868;2022-07-29T09:35:28;98341.13;;;30.73;32.84
6532;BME280;3299;42.004;24.868;2022-07-29T09:37:54;98347.25;;;30.73;33.81
6532;BME280;3299;42.004;24.868;2022-07-29T09:40:25;98337.16;;;30.75;33.39
6532;BME280;3299;42.004;24.868;2022-07-29T09:42:51;98343.41;;;30.81;33.41
6532;BME280;3299;42.004;24.868;2022-07-29T09:45:32;98349.88;;;30.96;32.20
6532;BME280;3299;42.004;24.868;2022-07-29T09:47:59;98341.31;;;30.94;34.69
6532;BME280;3299;42.004;24.868;2022-07-29T09:50:54;98329.78;;;31.05;35.09
6532;BME280;3299;42.004;24.868;2022-07-29T09:53:29;98328.81;;;31.11;34.75
6532;BME280;3299;42.004;24.868;2022-07-29T09:55:56;98327.84;;;31.29;34.94
6532;BME280;3299;42.004;24.868;2022-07-29T09:58:22;98322.94;;;31.37;33.39
6532;BME280;3299;42.004;24.868;2022-07-29T10:00:49;98335.22;;;31.50;32.40
6532;BME280;3299;42.004;24.868;2022-07-29T10:03:16;98335.31;;;31.55;32.84
6532;BME280;3299;42.004;24.868;2022-07-29T10:05:42;98335.66;;;31.58;32.29
6532;BME280;3299;42.004;24.868;2022-07-29T10:08:09;98325.44;;;31.55;31.36
6532;BME280;3299;42.004;24.868;2022-07-29T10:10:37;98335.13;;;31.73;32.05
6532;BME280;3299;42.004;24.868;2022-07-29T10:13:05;98330.38;;;31.91;31.80
6532;BME280;3299;42.004;24.868;2022-07-29T10:15:33;98336.13;;;31.83;31.78
6532;BME280;3299;42.004;24.868;2022-07-29T10:18:02;98333.72;;;31.98;32.50
6532;BME280;3299;42.004;24.868;2022-07-29T10:20:28;98327.16;;;32.06;32.32
6532;BME280;3299;42.004;24.868;2022-07-29T10:22:54;98328.53;;;32.08;32.50
6532;BME280;3299;42.004;24.868;2022-07-29T10:25:21;98330.88;;;32.21;31.27
6532;BME280;3299;42.004;24.868;2022-07-29T10:27:48;98329.56;;;32.07;31.86
6532;BME280;3299;42.004;24.868;2022-07-29T10:30:16;98334.44;;;32.10;30.94
6532;BME280;3299;42.004;24.868;2022-07-29T10:35:22;98320.34;;;32.31;32.02
6532;BME280;3299;42.004;24.868;2022-07-29T10:38:15;98317.47;;;32.54;32.31
6532;BME280;3299;42.004;24.868;2022-07-29T10:44:06;98320.78;;;32.61;31.91
6532;BME280;3299;42.004;24.868;2022-07-29T10:46:37;98314.44;;;32.51;31.58
6532;BME280;3299;42.004;24.868;2022-07-29T11:05:10;98289.38;;;34.01;29.44
6532;BME280;3299;42.004;24.868;2022-07-29T11:07:37;98295.63;;;34.06;28.70
6532;BME280;3299;42.004;24.868;2022-07-29T11:15:08;98271.03;;;34.24;29.04
6532;BME280;3299;42.004;24.868;2022-07-29T11:20:36;98283.50;;;34.35;28.31
6532;BME280;3299;42.004;24.868;2022-07-29T11:23:31;98283.84;;;34.54;28.67
6532;BME280;3299;42.004;24.868;2022-07-29T11:31:37;98284.84;;;34.84;28.80
6532;BME280;3299;42.004;24.868;2022-07-29T11:34:23;98278.34;;;34.80;29.58
6532;BME280;3299;42.004;24.868;2022-07-29T11:39:37;98279.34;;;34.64;29.11
6532;BME280;3299;42.004;24.868;2022-07-29T11:45:05;98269.75;;;34.78;28.68
6532;BME280;3299;42.004;24.868;2022-07-29T11:47:46;98270.91;;;35.02;28.33
6532;BME280;3299;42.004;24.868;2022-07-29T11:50:18;98262.44;;;34.74;28.53
6532;BME280;3299;42.004;24.868;2022-07-29T11:52:51;98257.16;;;34.94;28.87
6532;BME280;3299;42.004;24.868;2022-07-29T11:55:19;98252.13;;;35.17;28.07
6532;BME280;3299;42.004;24.868;2022-07-29T11:57:53;98252.19;;;35.37;28.40
6532;BME280;3299;42.004;24.868;2022-07-29T12:00:37;98254.66;;;35.54;28.70
6532;BME280;3299;42.004;24.868;2022-07-29T12:03:05;98257.13;;;35.70;29.05
6532;BME280;3299;42.004;24.868;2022-07-29T12:05:43;98262.50;;;35.70;28.86
6532;BME280;3299;42.004;24.868;2022-07-29T12:08:29;98264.09;;;35.51;28.30
6532;BME280;3299;42.004;24.868;2022-07-29T12:10:55;98258.16;;;35.64;28.18
6532;BME280;3299;42.004;24.868;2022-07-29T12:13:21;98252.78;;;35.64;27.99
6532;BME280;3299;42.004;24.868;2022-07-29T12:15:54;98264.13;;;35.76;27.93
6532;BME280;3299;42.004;24.868;2022-07-29T12:18:20;98253.84;;;35.68;28.17
6532;BME280;3299;42.004;24.868;2022-07-29T12:20:47;98243.66;;;35.75;28.35
6532;BME280;3299;42.004;24.868;2022-07-29T12:23:13;98242.00;;;35.64;27.75
6532;BME280;3299;42.004;24.868;2022-07-29T12:25:41;98239.59;;;35.73;27.98
6532;BME280;3299;42.004;24.868;2022-07-29T12:28:10;98241.75;;;35.76;28.27
6532;BME280;3299;42.004;24.868;2022-07-29T12:30:39;98230.41;;;35.59;29.22
6532;BME280;3299;42.004;24.868;2022-07-29T12:35:46;98233.41;;;35.72;27.03
6532;BME280;3299;42.004;24.868;2022-07-29T12:38:12;98238.78;;;35.92;28.33
6532;BME280;3299;42.004;24.868;2022-07-29T12:40:38;98227.44;;;36.10;28.03
6532;BME280;3299;42.004;24.868;2022-07-29T12:45:40;98224.72;;;36.35;28.09
6532;BME280;3299;42.004;24.868;2022-07-29T12:48:06;98217.22;;;36.02;28.17
6532;BME280;3299;42.004;24.868;2022-07-29T12:50:36;98216.13;;;36.23;28.05
6532;BME280;3299;42.004;24.868;2022-07-29T12:53:10;98222.03;;;36.35;27.88
6532;BME280;3299;42.004;24.868;2022-07-29T12:55:46;98224.97;;;36.39;27.41
6532;BME280;3299;42.004;24.868;2022-07-29T12:58:37;98222.50;;;36.57;27.20
6532;BME280;3299;42.004;24.868;2022-07-29T13:03:28;98205.03;;;36.35;26.75
6532;BME280;3299;42.004;24.868;2022-07-29T13:05:54;98202.53;;;36.53;26.92
6532;BME280;3299;42.004;24.868;2022-07-29T13:08:19;98207.41;;;36.56;27.12
6532;BME280;3299;42.004;24.868;2022-07-29T13:10:46;98201.97;;;36.66;27.81
6532;BME280;3299;42.004;24.868;2022-07-29T13:13:14;98205.69;;;36.80;27.36
6532;BME280;3299;42.004;24.868;2022-07-29T13:15:42;98204.13;;;36.74;27.15
6532;BME280;3299;42.004;24.868;2022-07-29T13:18:40;98209.38;;;36.94;26.57
6532;BME280;3299;42.004;24.868;2022-07-29T13:21:14;98202.34;;;36.98;27.00
6532;BME280;3299;42.004;24.868;2022-07-29T13:23:40;98193.66;;;37.06;27.54
6532;BME280;3299;42.004;24.868;2022-07-29T13:26:10;98186.66;;;37.05;27.34
6532;BME280;3299;42.004;24.868;2022-07-29T13:28:36;98191.06;;;36.91;26.87
6532;BME280;3299;42.004;24.868;2022-07-29T13:31:02;98198.13;;;36.82;26.59
6532;BME280;3299;42.004;24.868;2022-07-29T13:33:28;98193.88;;;36.66;27.19
6532;BME280;3299;42.004;24.868;2022-07-29T13:35:53;98184.72;;;36.62;26.90
6532;BME280;3299;42.004;24.868;2022-07-29T13:38:18;98186.09;;;36.65;27.54
6532;BME280;3299;42.004;24.868;2022-07-29T13:40:44;98180.59;;;36.80;27.68
6532;BME280;3299;42.004;24.868;2022-07-29T13:43:10;98182.41;;;36.94;26.61
6532;BME280;3299;42.004;24.868;2022-07-29T13:45:36;98171.78;;;37.18;26.25
6532;BME280;3299;42.004;24.868;2022-07-29T13:48:01;98177.59;;;37.35;26.62
6532;BME280;3299;42.004;24.868;2022-07-29T13:50:26;98176.53;;;37.64;26.20
6532;BME280;3299;42.004;24.868;2022-07-29T13:52:52;98164.75;;;37.50;26.47
6532;BME280;3299;42.004;24.868;2022-07-29T13:55:18;98169.47;;;37.35;26.34
6532;BME280;3299;42.004;24.868;2022-07-29T13:57:43;98164.84;;;37.40;26.62
6532;BME280;3299;42.004;24.868;2022-07-29T14:00:09;98160.16;;;37.17;26.86
6532;BME280;3299;42.004;24.868;2022-07-29T14:02:35;98151.59;;;37.00;26.84
6532;BME280;3299;42.004;24.868;2022-07-29T14:05:02;98144.69;;;36.84;27.42
6532;BME280;3299;42.004;24.868;2022-07-29T14:07:28;98154.13;;;36.87;26.92
6532;BME280;3299;42.004;24.868;2022-07-29T14:09:53;98149.47;;;36.97;26.96
6532;BME280;3299;42.004;24.868;2022-07-29T14:12:19;98152.44;;;37.39;27.08
6532;BME280;3299;42.004;24.868;2022-07-29T14:14:44;98154.19;;;37.59;25.74